sensor_id;sensor_type;location;lat;lon;timestamp;P1;durP1;ratioP1;P2;durP2;ratioP2
27618;SDS011;15039;50.830;4.730;2023-05-10T00:00:38;9.05;;;6.40;;
27618;SDS011;15039;50.830;4.730;2023-05-10T00:03:04;10.02;;;6.60;;
27618;SDS011;15039;50.830;4.730;2023-05-10T00:05:30;8.27;;;6.10;;
27618;SDS011;15039;50.830;4.730;2023-05-10T00:07:56;11.50;;;6.68;;
27618;SDS011;15039;50.830;4.730;2023-05-10T00:10:22;11.73;;;6.72;;
27618;SDS011;15039;50.830;4.730;2023-05-10T00:12:48;12.18;;;6.97;;
27618;SDS011;15039;50.830;4.730;2023-05-10T00:15:14;10.88;;;5.95;;
27618;SDS011;15039;50.830;4.730;2023-05-10T00:17:40;12.30;;;6.40;;
27618;SDS011;15039;50.830;4.730;2023-05-10T00:20:07;9.38;;;6.25;;
27618;SDS011;15039;50.830;4.730;2023-05-10T00:22:33;12.30;;;6.53;;
27618;SDS011;15039;50.830;4.730;2023-05-10T00:24:59;8.93;;;6.32;;
27618;SDS011;15039;50.830;4.730;2023-05-10T00:27:25;13.10;;;6.85;;
27618;SDS011;15039;50.830;4.730;2023-05-10T00:29:50;9.07;;;5.82;;
27618;SDS011;15039;50.830;4.730;2023-05-10T00:32:16;9.55;;;6.32;;
27618;SDS011;15039;50.830;4.730;2023-05-10T00:34:41;8.88;;;6.75;;
27618;SDS011;15039;50.830;4.730;2023-05-10T00:37:07;9.35;;;6.25;;
27618;SDS011;15039;50.830;4.730;2023-05-10T00:39:33;11.88;;;7.20;;
27618;SDS011;15039;50.830;4.730;2023-05-10T00:41:58;11.05;;;6.55;;
27618;SDS011;15039;50.830;4.730;2023-05-10T00:44:25;9.27;;;6.95;;
27618;SDS011;15039;50.830;4.730;2023-05-10T00:46:50;10.57;;;7.43;;
27618;SDS011;15039;50.830;4.730;2023-05-10T00:49:17;12.00;;;6.47;;
27618;SDS011;15039;50.830;4.730;2023-05-10T00:51:43;11.13;;;6.90;;
27618;SDS011;15039;50.830;4.730;2023-05-10T00:54:14;13.98;;;6.90;;
27618;SDS011;15039;50.830;4.730;2023-05-10T00:56:40;11.38;;;6.47;;
27618;SDS011;15039;50.830;4.730;2023-05-10T00:59:06;10.02;;;6.00;;
27618;SDS011;15039;50.830;4.730;2023-05-10T01:01:34;11.48;;;7.45;;
27618;SDS011;15039;50.830;4.730;2023-05-10T01:04:00;13.00;;;6.90;;
27618;SDS011;15039;50.830;4.730;2023-05-10T01:06:28;12.02;;;7.35;;
27618;SDS011;15039;50.830;4.730;2023-05-10T01:08:53;11.63;;;6.70;;
27618;SDS011;15039;50.830;4.730;2023-05-10T01:11:20;14.18;;;7.28;;
27618;SDS011;15039;50.830;4.730;2023-05-10T01:13:47;12.23;;;6.97;;
27618;SDS011;15039;50.830;4.730;2023-05-10T01:16:18;10.02;;;6.28;;
27618;SDS011;15039;50.830;4.730;2023-05-10T01:18:44;15.82;;;6.75;;
27618;SDS011;15039;50.830;4.730;2023-05-10T01:24:12;8.95;;;6.28;;
27618;SDS011;15039;50.830;4.730;2023-05-10T01:37:36;13.77;;;6.65;;
27618;SDS011;15039;50.830;4.730;2023-05-10T01:40:23;11.50;;;7.32;;
27618;SDS011;15039;50.830;4.730;2023-05-10T01:42:59;11.32;;;7.38;;
27618;SDS011;15039;50.830;4.730;2023-05-10T01:45:37;9.55;;;6.90;;
27618;SDS011;15039;50.830;4.730;2023-05-10T01:48:10;14.07;;;7.63;;
27618;SDS011;15039;50.830;4.730;2023-05-10T01:50:41;12.90;;;7.53;;
27618;SDS011;15039;50.830;4.730;2023-05-10T01:53:09;10.60;;;7.32;;
27618;SDS011;15039;50.830;4.730;2023-05-10T01:55:41;11.55;;;7.40;;
27618;SDS011;15039;50.830;4.730;2023-05-10T01:58:44;13.88;;;7.20;;
27618;SDS011;15039;50.830;4.730;2023-05-10T02:01:05;10.45;;;7.47;;
27618;SDS011;15039;50.830;4.730;2023-05-10T02:03:32;11.93;;;7.78;;
27618;SDS011;15039;50.830;4.730;2023-05-10T02:06:01;16.33;;;8.15;;
27618;SDS011;15039;50.830;4.730;2023-05-10T02:08:27;12.93;;;8.60;;
27618;SDS011;15039;50.830;4.730;2023-05-10T02:10:56;14.10;;;7.35;;
27618;SDS011;15039;50.830;4.730;2023-05-10T02:13:23;13.25;;;8.57;;
27618;SDS011;15039;50.830;4.730;2023-05-10T02:15:50;14.50;;;8.50;;
27618;SDS011;15039;50.830;4.730;2023-05-10T02:18:18;16.08;;;9.18;;
27618;SDS011;15039;50.830;4.730;2023-05-10T02:20:45;14.50;;;9.27;;
27618;SDS011;15039;50.830;4.730;2023-05-10T02:23:11;15.98;;;9.05;;
27618;SDS011;15039;50.830;4.730;2023-05-10T02:25:38;12.07;;;8.65;;
27618;SDS011;15039;50.830;4.730;2023-05-10T02:28:05;13.57;;;8.80;;
27618;SDS011;15039;50.830;4.730;2023-05-10T02:30:32;14.60;;;8.20;;
27618;SDS011;15039;50.830;4.730;2023-05-10T02:32:59;14.98;;;9.00;;
27618;SDS011;15039;50.830;4.730;2023-05-10T02:35:27;15.10;;;9.40;;
27618;SDS011;15039;50.830;4.730;2023-05-10T02:37:53;14.15;;;8.18;;
27618;SDS011;15039;50.830;4.730;2023-05-10T02:40:20;12.27;;;8.30;;
27618;SDS011;15039;50.830;4.730;2023-05-10T02:42:48;13.27;;;8.38;;
27618;SDS011;15039;50.830;4.730;2023-05-10T02:45:18;13.77;;;8.43;;
27618;SDS011;15039;50.830;4.730;2023-05-10T02:47:47;9.57;;;8.18;;
27618;SDS011;15039;50.830;4.730;2023-05-10T02:50:13;12.95;;;8.25;;
27618;SDS011;15039;50.830;4.730;2023-05-10T02:52:40;13.95;;;8.50;;
27618;SDS011;15039;50.830;4.730;2023-05-10T02:55:11;11.23;;;8.18;;
27618;SDS011;15039;50.830;4.730;2023-05-10T03:00:13;16.50;;;9.05;;
27618;SDS011;15039;50.830;4.730;2023-05-10T03:02:39;12.45;;;8.27;;
27618;SDS011;15039;50.830;4.730;2023-05-10T03:05:05;12.10;;;8.88;;
27618;SDS011;15039;50.830;4.730;2023-05-10T03:07:31;13.40;;;9.07;;
27618;SDS011;15039;50.830;4.730;2023-05-10T03:09:58;13.38;;;8.73;;
27618;SDS011;15039;50.830;4.730;2023-05-10T03:15:31;15.13;;;9.02;;
27618;SDS011;15039;50.830;4.730;2023-05-10T03:18:11;12.80;;;8.52;;
27618;SDS011;15039;50.830;4.730;2023-05-10T03:20:42;11.90;;;8.05;;
27618;SDS011;15039;50.830;4.730;2023-05-10T03:23:12;13.88;;;7.90;;
27618;SDS011;15039;50.830;4.730;2023-05-10T03:25:56;13.13;;;8.38;;
27618;SDS011;15039;50.830;4.730;2023-05-10T03:28:24;11.05;;;7.68;;
27618;SDS011;15039;50.830;4.730;2023-05-10T03:30:52;13.05;;;8.52;;
27618;SDS011;15039;50.830;4.730;2023-05-10T03:33:19;13.30;;;8.55;;
27618;SDS011;15039;50.830;4.730;2023-05-10T03:35:45;11.98;;;7.82;;
27618;SDS011;15039;50.830;4.730;2023-05-10T03:38:11;12.50;;;8.10;;
27618;SDS011;15039;50.830;4.730;2023-05-10T03:40:37;13.60;;;7.40;;
27618;SDS011;15039;50.830;4.730;2023-05-10T03:43:03;12.18;;;7.45;;
27618;SDS011;15039;50.830;4.730;2023-05-10T03:45:29;12.57;;;8.00;;
27618;SDS011;15039;50.830;4.730;2023-05-10T03:47:55;12.45;;;8.32;;
27618;SDS011;15039;50.830;4.730;2023-05-10T03:50:22;12.52;;;7.93;;
27618;SDS011;15039;50.830;4.730;2023-05-10T03:52:48;10.82;;;7.68;;
27618;SDS011;15039;50.830;4.730;2023-05-10T03:55:14;10.32;;;7.95;;
27618;SDS011;15039;50.830;4.730;2023-05-10T03:57:40;13.85;;;8.32;;
27618;SDS011;15039;50.830;4.730;2023-05-10T04:00:06;11.43;;;8.05;;
27618;SDS011;15039;50.830;4.730;2023-05-10T04:02:32;13.85;;;8.73;;
27618;SDS011;15039;50.830;4.730;2023-05-10T04:04:57;15.57;;;8.13;;
27618;SDS011;15039;50.830;4.730;2023-05-10T04:07:23;11.20;;;8.00;;
27618;SDS011;15039;50.830;4.730;2023-05-10T04:09:49;11.30;;;8.30;;
27618;SDS011;15039;50.830;4.730;2023-05-10T04:12:14;11.70;;;8.15;;
27618;SDS011;15039;50.830;4.730;2023-05-10T04:14:40;15.30;;;8.07;;
27618;SDS011;15039;50.830;4.730;2023-05-10T04:17:06;14.48;;;8.65;;
27618;SDS011;15039;50.830;4.730;2023-05-10T04:19:32;12.73;;;8.68;;
27618;SDS011;15039;50.830;4.730;2023-05-10T04:21:57;13.95;;;8.52;;
27618;SDS011;15039;50.830;4.730;2023-05-10T04:24:23;19.13;;;9.50;;
27618;SDS011;15039;50.830;4.730;2023-05-10T04:26:49;16.40;;;9.25;;
27618;SDS011;15039;50.830;4.730;2023-05-10T04:29:16;14.60;;;9.38;;
27618;SDS011;15039;50.830;4.730;2023-05-10T04:31:43;15.38;;;9.55;;
27618;SDS011;15039;50.830;4.730;2023-05-10T04:34:09;18.27;;;10.23;;
27618;SDS011;15039;50.830;4.730;2023-05-10T04:36:35;17.50;;;9.88;;
27618;SDS011;15039;50.830;4.730;2023-05-10T04:39:03;15.23;;;8.82;;
27618;SDS011;15039;50.830;4.730;2023-05-10T04:41:29;14.55;;;9.57;;
27618;SDS011;15039;50.830;4.730;2023-05-10T04:43:55;17.52;;;9.93;;
27618;SDS011;15039;50.830;4.730;2023-05-10T04:46:21;17.67;;;10.15;;
27618;SDS011;15039;50.830;4.730;2023-05-10T04:48:47;16.65;;;11.10;;
27618;SDS011;15039;50.830;4.730;2023-05-10T04:51:13;18.50;;;11.23;;
27618;SDS011;15039;50.830;4.730;2023-05-10T04:53:38;18.92;;;10.35;;
27618;SDS011;15039;50.830;4.730;2023-05-10T04:56:04;19.45;;;11.00;;
27618;SDS011;15039;50.830;4.730;2023-05-10T04:58:30;23.85;;;11.38;;
27618;SDS011;15039;50.830;4.730;2023-05-10T05:00:56;22.58;;;12.27;;
27618;SDS011;15039;50.830;4.730;2023-05-10T05:03:21;19.17;;;11.93;;
27618;SDS011;15039;50.830;4.730;2023-05-10T05:05:47;21.25;;;12.65;;
27618;SDS011;15039;50.830;4.730;2023-05-10T05:08:13;21.90;;;12.68;;
27618;SDS011;15039;50.830;4.730;2023-05-10T05:10:39;22.27;;;13.25;;
27618;SDS011;15039;50.830;4.730;2023-05-10T05:13:05;23.35;;;13.07;;
27618;SDS011;15039;50.830;4.730;2023-05-10T05:15:31;21.27;;;12.95;;
27618;SDS011;15039;50.830;4.730;2023-05-10T05:17:56;27.25;;;14.38;;
27618;SDS011;15039;50.830;4.730;2023-05-10T05:20:22;25.70;;;13.93;;
27618;SDS011;15039;50.830;4.730;2023-05-10T05:22:48;24.17;;;13.73;;
27618;SDS011;15039;50.830;4.730;2023-05-10T05:25:13;27.60;;;14.32;;
27618;SDS011;15039;50.830;4.730;2023-05-10T05:27:40;24.58;;;15.18;;
27618;SDS011;15039;50.830;4.730;2023-05-10T05:30:06;25.60;;;15.10;;
27618;SDS011;15039;50.830;4.730;2023-05-10T05:32:32;30.60;;;16.02;;
27618;SDS011;15039;50.830;4.730;2023-05-10T05:34:57;23.58;;;14.68;;
27618;SDS011;15039;50.830;4.730;2023-05-10T05:37:23;29.48;;;15.98;;
27618;SDS011;15039;50.830;4.730;2023-05-10T05:39:49;27.73;;;15.65;;
27618;SDS011;15039;50.830;4.730;2023-05-10T05:42:15;28.42;;;15.30;;
27618;SDS011;15039;50.830;4.730;2023-05-10T05:44:42;26.25;;;15.45;;
27618;SDS011;15039;50.830;4.730;2023-05-10T05:47:08;27.98;;;15.85;;
27618;SDS011;15039;50.830;4.730;2023-05-10T05:49:34;27.67;;;16.30;;
27618;SDS011;15039;50.830;4.730;2023-05-10T05:52:00;27.17;;;16.50;;
27618;SDS011;15039;50.830;4.730;2023-05-10T05:54:26;26.83;;;15.88;;
27618;SDS011;15039;50.830;4.730;2023-05-10T05:56:56;28.15;;;15.95;;
27618;SDS011;15039;50.830;4.730;2023-05-10T05:59:22;29.00;;;15.82;;
27618;SDS011;15039;50.830;4.730;2023-05-10T06:01:48;26.75;;;15.60;;
27618;SDS011;15039;50.830;4.730;2023-05-10T06:04:14;26.77;;;15.60;;
27618;SDS011;15039;50.830;4.730;2023-05-10T06:06:40;27.58;;;15.85;;
27618;SDS011;15039;50.830;4.730;2023-05-10T06:09:06;27.05;;;15.63;;
27618;SDS011;15039;50.830;4.730;2023-05-10T06:11:31;25.20;;;14.75;;
27618;SDS011;15039;50.830;4.730;2023-05-10T06:13:57;24.70;;;14.75;;
27618;SDS011;15039;50.830;4.730;2023-05-10T06:16:24;25.13;;;14.82;;
27618;SDS011;15039;50.830;4.730;2023-05-10T06:18:50;24.17;;;14.52;;
27618;SDS011;15039;50.830;4.730;2023-05-10T06:21:16;25.92;;;14.30;;
27618;SDS011;15039;50.830;4.730;2023-05-10T06:23:41;24.08;;;14.70;;
27618;SDS011;15039;50.830;4.730;2023-05-10T06:26:09;23.88;;;14.20;;
27618;SDS011;15039;50.830;4.730;2023-05-10T06:28:35;22.35;;;13.38;;
27618;SDS011;15039;50.830;4.730;2023-05-10T06:31:03;20.20;;;13.05;;
27618;SDS011;15039;50.830;4.730;2023-05-10T06:33:30;17.42;;;10.95;;
27618;SDS011;15039;50.830;4.730;2023-05-10T06:35:56;12.73;;;6.15;;
27618;SDS011;15039;50.830;4.730;2023-05-10T06:38:22;5.47;;;4.20;;
27618;SDS011;15039;50.830;4.730;2023-05-10T06:40:49;5.07;;;3.33;;
27618;SDS011;15039;50.830;4.730;2023-05-10T06:43:15;2.45;;;2.08;;
27618;SDS011;15039;50.830;4.730;2023-05-10T06:45:41;2.40;;;1.90;;
27618;SDS011;15039;50.830;4.730;2023-05-10T06:48:07;1.77;;;1.67;;
27618;SDS011;15039;50.830;4.730;2023-05-10T06:50:33;2.63;;;1.70;;
27618;SDS011;15039;50.830;4.730;2023-05-10T06:52:59;1.40;;;1.30;;
27618;SDS011;15039;50.830;4.730;2023-05-10T06:55:26;1.50;;;1.27;;
27618;SDS011;15039;50.830;4.730;2023-05-10T06:57:53;1.60;;;1.10;;
27618;SDS011;15039;50.830;4.730;2023-05-10T07:00:19;2.85;;;1.02;;
27618;SDS011;15039;50.830;4.730;2023-05-10T07:02:45;2.10;;;1.20;;
27618;SDS011;15039;50.830;4.730;2023-05-10T07:05:11;1.00;;;1.00;;
27618;SDS011;15039;50.830;4.730;2023-05-10T07:07:37;1.00;;;1.00;;
27618;SDS011;15039;50.830;4.730;2023-05-10T07:10:03;1.00;;;0.90;;
27618;SDS011;15039;50.830;4.730;2023-05-10T07:12:29;2.40;;;1.17;;
27618;SDS011;15039;50.830;4.730;2023-05-10T07:14:55;1.33;;;1.23;;
27618;SDS011;15039;50.830;4.730;2023-05-10T07:17:20;2.13;;;1.58;;
27618;SDS011;15039;50.830;4.730;2023-05-10T07:19:46;1.58;;;1.48;;
27618;SDS011;15039;50.830;4.730;2023-05-10T07:22:12;6.50;;;1.80;;
27618;SDS011;15039;50.830;4.730;2023-05-10T07:24:37;3.20;;;1.30;;
27618;SDS011;15039;50.830;4.730;2023-05-10T07:27:03;1.80;;;1.65;;
27618;SDS011;15039;50.830;4.730;2023-05-10T07:29:29;1.50;;;1.40;;
27618;SDS011;15039;50.830;4.730;2023-05-10T07:31:55;2.55;;;1.77;;
27618;SDS011;15039;50.830;4.730;2023-05-10T07:34:20;2.10;;;1.60;;
27618;SDS011;15039;50.830;4.730;2023-05-10T07:36:46;1.88;;;1.55;;
27618;SDS011;15039;50.830;4.730;2023-05-10T07:39:12;1.67;;;1.55;;
27618;SDS011;15039;50.830;4.730;2023-05-10T07:41:38;3.08;;;1.50;;
27618;SDS011;15039;50.830;4.730;2023-05-10T07:44:04;1.60;;;1.50;;
27618;SDS011;15039;50.830;4.730;2023-05-10T07:46:30;3.17;;;1.98;;
27618;SDS011;15039;50.830;4.730;2023-05-10T07:48:56;2.90;;;1.63;;
27618;SDS011;15039;50.830;4.730;2023-05-10T07:51:22;2.70;;;1.58;;
27618;SDS011;15039;50.830;4.730;2023-05-10T07:53:48;2.25;;;1.67;;
27618;SDS011;15039;50.830;4.730;2023-05-10T07:56:21;1.70;;;1.60;;
27618;SDS011;15039;50.830;4.730;2023-05-10T07:59:01;3.65;;;1.90;;
27618;SDS011;15039;50.830;4.730;2023-05-10T08:01:32;2.10;;;1.90;;
27618;SDS011;15039;50.830;4.730;2023-05-10T08:03:58;3.33;;;2.25;;
27618;SDS011;15039;50.830;4.730;2023-05-10T08:06:25;2.38;;;2.10;;
27618;SDS011;15039;50.830;4.730;2023-05-10T08:08:53;3.63;;;2.50;;
27618;SDS011;15039;50.830;4.730;2023-05-10T08:11:22;4.57;;;2.55;;
27618;SDS011;15039;50.830;4.730;2023-05-10T08:16:14;4.85;;;3.00;;
27618;SDS011;15039;50.830;4.730;2023-05-10T08:18:40;4.85;;;3.90;;
27618;SDS011;15039;50.830;4.730;2023-05-10T08:21:06;4.60;;;3.45;;
27618;SDS011;15039;50.830;4.730;2023-05-10T08:23:32;5.70;;;3.60;;
27618;SDS011;15039;50.830;4.730;2023-05-10T08:25:58;4.90;;;3.60;;
27618;SDS011;15039;50.830;4.730;2023-05-10T08:28:24;9.82;;;4.35;;
27618;SDS011;15039;50.830;4.730;2023-05-10T08:30:50;5.80;;;4.55;;
27618;SDS011;15039;50.830;4.730;2023-05-10T08:33:17;5.40;;;4.18;;
27618;SDS011;15039;50.830;4.730;2023-05-10T08:35:43;5.47;;;4.15;;
27618;SDS011;15039;50.830;4.730;2023-05-10T08:38:09;6.30;;;4.30;;
27618;SDS011;15039;50.830;4.730;2023-05-10T08:40:36;6.85;;;4.05;;
27618;SDS011;15039;50.830;4.730;2023-05-10T08:43:04;5.32;;;4.10;;
27618;SDS011;15039;50.830;4.730;2023-05-10T08:45:37;6.53;;;3.65;;
27618;SDS011;15039;50.830;4.730;2023-05-10T08:48:06;5.10;;;3.55;;
27618;SDS011;15039;50.830;4.730;2023-05-10T08:50:35;4.65;;;3.58;;
27618;SDS011;15039;50.830;4.730;2023-05-10T08:53:03;5.72;;;3.67;;
27618;SDS011;15039;50.830;4.730;2023-05-10T08:55:32;4.18;;;3.22;;
27618;SDS011;15039;50.830;4.730;2023-05-10T08:57:59;4.50;;;3.25;;
27618;SDS011;15039;50.830;4.730;2023-05-10T09:00:25;4.47;;;3.35;;
27618;SDS011;15039;50.830;4.730;2023-05-10T09:02:51;6.47;;;3.40;;
27618;SDS011;15039;50.830;4.730;2023-05-10T09:05:18;4.50;;;3.33;;
27618;SDS011;15039;50.830;4.730;2023-05-10T09:07:44;3.85;;;2.92;;
27618;SDS011;15039;50.830;4.730;2023-05-10T09:10:11;4.75;;;3.00;;
27618;SDS011;15039;50.830;4.730;2023-05-10T09:12:38;3.50;;;3.20;;
27618;SDS011;15039;50.830;4.730;2023-05-10T09:15:04;3.03;;;2.72;;
27618;SDS011;15039;50.830;4.730;2023-05-10T09:17:31;4.28;;;3.10;;
27618;SDS011;15039;50.830;4.730;2023-05-10T09:20:01;3.08;;;2.80;;
27618;SDS011;15039;50.830;4.730;2023-05-10T09:22:29;4.22;;;3.17;;
27618;SDS011;15039;50.830;4.730;2023-05-10T09:25:09;3.42;;;2.97;;
27618;SDS011;15039;50.830;4.730;2023-05-10T09:27:37;4.05;;;2.70;;
27618;SDS011;15039;50.830;4.730;2023-05-10T09:30:05;3.28;;;2.42;;
27618;SDS011;15039;50.830;4.730;2023-05-10T09:35:08;2.60;;;2.33;;
27618;SDS011;15039;50.830;4.730;2023-05-10T09:37:44;3.78;;;2.58;;
27618;SDS011;15039;50.830;4.730;2023-05-10T09:40:16;2.28;;;2.08;;
27618;SDS011;15039;50.830;4.730;2023-05-10T09:45:24;2.90;;;2.35;;
27618;SDS011;15039;50.830;4.730;2023-05-10T09:47:51;2.40;;;2.20;;
27618;SDS011;15039;50.830;4.730;2023-05-10T09:50:17;2.13;;;1.92;;
27618;SDS011;15039;50.830;4.730;2023-05-10T09:53:00;3.75;;;1.67;;
27618;SDS011;15039;50.830;4.730;2023-05-10T09:55:41;1.85;;;1.75;;
27618;SDS011;15039;50.830;4.730;2023-05-10T09:58:10;1.80;;;1.65;;
27618;SDS011;15039;50.830;4.730;2023-05-10T10:00:37;1.85;;;1.75;;
27618;SDS011;15039;50.830;4.730;2023-05-10T10:03:14;1.40;;;1.30;;
27618;SDS011;15039;50.830;4.730;2023-05-10T10:05:45;1.58;;;1.48;;
27618;SDS011;15039;50.830;4.730;2023-05-10T10:08:12;2.72;;;1.55;;
27618;SDS011;15039;50.830;4.730;2023-05-10T10:10:38;1.50;;;1.40;;
27618;SDS011;15039;50.830;4.730;2023-05-10T10:13:10;1.33;;;1.23;;
27618;SDS011;15039;50.830;4.730;2023-05-10T10:15:35;1.52;;;1.35;;
27618;SDS011;15039;50.830;4.730;2023-05-10T10:18:01;1.30;;;1.20;;
27618;SDS011;15039;50.830;4.730;2023-05-10T10:20:29;1.92;;;1.15;;
27618;SDS011;15039;50.830;4.730;2023-05-10T10:22:55;1.58;;;1.35;;
27618;SDS011;15039;50.830;4.730;2023-05-10T10:25:20;1.92;;;1.20;;
27618;SDS011;15039;50.830;4.730;2023-05-10T10:36:15;1.27;;;1.17;;
27618;SDS011;15039;50.830;4.730;2023-05-10T10:47:36;1.75;;;1.50;;
27618;SDS011;15039;50.830;4.730;2023-05-10T10:57:43;1.05;;;0.80;;
27618;SDS011;15039;50.830;4.730;2023-05-10T11:16:14;1.25;;;1.00;;
27618;SDS011;15039;50.830;4.730;2023-05-10T11:18:54;0.98;;;0.88;;
27618;SDS011;15039;50.830;4.730;2023-05-10T11:21:27;0.82;;;0.80;;
27618;SDS011;15039;50.830;4.730;2023-05-10T11:23:53;0.73;;;0.73;;
27618;SDS011;15039;50.830;4.730;2023-05-10T11:26:33;1.40;;;0.80;;
27618;SDS011;15039;50.830;4.730;2023-05-10T11:29:00;0.77;;;0.70;;
27618;SDS011;15039;50.830;4.730;2023-05-10T11:31:27;0.60;;;0.60;;
27618;SDS011;15039;50.830;4.730;2023-05-10T11:33:54;1.75;;;1.10;;
27618;SDS011;15039;50.830;4.730;2023-05-10T11:36:23;0.80;;;0.80;;
27618;SDS011;15039;50.830;4.730;2023-05-10T11:38:52;2.15;;;0.77;;
27618;SDS011;15039;50.830;4.730;2023-05-10T11:41:19;0.98;;;0.75;;
27618;SDS011;15039;50.830;4.730;2023-05-10T11:43:46;0.70;;;0.70;;
27618;SDS011;15039;50.830;4.730;2023-05-10T11:46:14;0.47;;;0.43;;
27618;SDS011;15039;50.830;4.730;2023-05-10T11:48:43;0.60;;;0.60;;
27618;SDS011;15039;50.830;4.730;2023-05-10T11:51:09;0.50;;;0.50;;
27618;SDS011;15039;50.830;4.730;2023-05-10T11:53:37;0.40;;;0.40;;
27618;SDS011;15039;50.830;4.730;2023-05-10T11:56:12;0.40;;;0.40;;
27618;SDS011;15039;50.830;4.730;2023-05-10T11:58:38;0.60;;;0.60;;
27618;SDS011;15039;50.830;4.730;2023-05-10T12:01:05;0.43;;;0.43;;
27618;SDS011;15039;50.830;4.730;2023-05-10T12:03:32;0.52;;;0.50;;
27618;SDS011;15039;50.830;4.730;2023-05-10T12:05:58;0.60;;;0.60;;
27618;SDS011;15039;50.830;4.730;2023-05-10T12:08:25;0.52;;;0.52;;
27618;SDS011;15039;50.830;4.730;2023-05-10T12:10:51;0.50;;;0.50;;
27618;SDS011;15039;50.830;4.730;2023-05-10T12:13:18;0.40;;;0.40;;
27618;SDS011;15039;50.830;4.730;2023-05-10T12:15:46;2.22;;;0.50;;
27618;SDS011;15039;50.830;4.730;2023-05-10T12:18:12;0.85;;;0.70;;
27618;SDS011;15039;50.830;4.730;2023-05-10T12:20:39;1.15;;;0.85;;
27618;SDS011;15039;50.830;4.730;2023-05-10T12:23:05;0.85;;;0.85;;
27618;SDS011;15039;50.830;4.730;2023-05-10T12:25:33;1.17;;;0.63;;
27618;SDS011;15039;50.830;4.730;2023-05-10T12:28:00;0.70;;;0.70;;
27618;SDS011;15039;50.830;4.730;2023-05-10T12:30:30;0.85;;;0.70;;
27618;SDS011;15039;50.830;4.730;2023-05-10T12:33:10;1.38;;;0.70;;
27618;SDS011;15039;50.830;4.730;2023-05-10T12:38:27;0.80;;;0.80;;
27618;SDS011;15039;50.830;4.730;2023-05-10T12:41:01;2.55;;;0.73;;
27618;SDS011;15039;50.830;4.730;2023-05-10T12:43:28;1.00;;;0.90;;
27618;SDS011;15039;50.830;4.730;2023-05-10T12:45:54;1.45;;;1.10;;
27618;SDS011;15039;50.830;4.730;2023-05-10T12:48:20;0.90;;;0.90;;
27618;SDS011;15039;50.830;4.730;2023-05-10T12:50:46;3.20;;;0.80;;
27618;SDS011;15039;50.830;4.730;2023-05-10T12:53:15;1.13;;;1.00;;
27618;SDS011;15039;50.830;4.730;2023-05-10T12:55:42;1.13;;;0.70;;
27618;SDS011;15039;50.830;4.730;2023-05-10T12:58:09;0.70;;;0.68;;
27618;SDS011;15039;50.830;4.730;2023-05-10T13:00:34;1.00;;;0.63;;
27618;SDS011;15039;50.830;4.730;2023-05-10T13:03:03;0.60;;;0.60;;
27618;SDS011;15039;50.830;4.730;2023-05-10T13:05:34;1.38;;;0.80;;
27618;SDS011;15039;50.830;4.730;2023-05-10T13:08:00;0.63;;;0.50;;
27618;SDS011;15039;50.830;4.730;2023-05-10T13:10:26;0.77;;;0.73;;
27618;SDS011;15039;50.830;4.730;2023-05-10T13:12:53;0.60;;;0.52;;
27618;SDS011;15039;50.830;4.730;2023-05-10T13:15:22;0.70;;;0.70;;
27618;SDS011;15039;50.830;4.730;2023-05-10T13:17:48;0.70;;;0.60;;
27618;SDS011;15039;50.830;4.730;2023-05-10T13:20:13;1.50;;;0.80;;
27618;SDS011;15039;50.830;4.730;2023-05-10T13:22:39;0.80;;;0.80;;
27618;SDS011;15039;50.830;4.730;2023-05-10T13:25:06;1.95;;;0.75;;
27618;SDS011;15039;50.830;4.730;2023-05-10T13:27:32;1.02;;;0.93;;
27618;SDS011;15039;50.830;4.730;2023-05-10T13:29:57;1.33;;;1.00;;
27618;SDS011;15039;50.830;4.730;2023-05-10T13:32:24;2.25;;;0.80;;
27618;SDS011;15039;50.830;4.730;2023-05-10T13:34:50;0.82;;;0.82;;
27618;SDS011;15039;50.830;4.730;2023-05-10T13:37:16;1.25;;;0.70;;
27618;SDS011;15039;50.830;4.730;2023-05-10T13:39:42;1.10;;;1.00;;
27618;SDS011;15039;50.830;4.730;2023-05-10T13:42:08;2.15;;;1.00;;
27618;SDS011;15039;50.830;4.730;2023-05-10T13:44:33;1.00;;;1.00;;
27618;SDS011;15039;50.830;4.730;2023-05-10T13:46:59;0.90;;;0.90;;
27618;SDS011;15039;50.830;4.730;2023-05-10T13:49:25;1.17;;;0.90;;
27618;SDS011;15039;50.830;4.730;2023-05-10T13:51:50;1.00;;;0.90;;
27618;SDS011;15039;50.830;4.730;2023-05-10T13:54:17;1.05;;;0.90;;
27618;SDS011;15039;50.830;4.730;2023-05-10T13:56:44;0.90;;;0.75;;
27618;SDS011;15039;50.830;4.730;2023-05-10T13:59:12;3.33;;;1.20;;
27618;SDS011;15039;50.830;4.730;2023-05-10T14:01:39;1.75;;;1.10;;
27618;SDS011;15039;50.830;4.730;2023-05-10T14:04:06;1.30;;;1.20;;
27618;SDS011;15039;50.830;4.730;2023-05-10T14:06:35;2.42;;;1.45;;
27618;SDS011;15039;50.830;4.730;2023-05-10T14:09:01;2.67;;;1.40;;
27618;SDS011;15039;50.830;4.730;2023-05-10T14:11:27;1.45;;;1.30;;
27618;SDS011;15039;50.830;4.730;2023-05-10T14:13:53;1.77;;;1.67;;
27618;SDS011;15039;50.830;4.730;2023-05-10T14:16:19;2.63;;;1.65;;
27618;SDS011;15039;50.830;4.730;2023-05-10T14:18:45;3.83;;;1.65;;
27618;SDS011;15039;50.830;4.730;2023-05-10T14:21:11;3.67;;;1.90;;
27618;SDS011;15039;50.830;4.730;2023-05-10T14:23:37;2.20;;;1.45;;
27618;SDS011;15039;50.830;4.730;2023-05-10T14:26:03;3.03;;;1.48;;
27618;SDS011;15039;50.830;4.730;2023-05-10T14:28:28;1.70;;;1.60;;
27618;SDS011;15039;50.830;4.730;2023-05-10T14:30:54;2.33;;;1.80;;
27618;SDS011;15039;50.830;4.730;2023-05-10T14:33:20;1.80;;;1.70;;
27618;SDS011;15039;50.830;4.730;2023-05-10T14:35:46;2.22;;;1.90;;
27618;SDS011;15039;50.830;4.730;2023-05-10T14:38:12;3.50;;;1.95;;
27618;SDS011;15039;50.830;4.730;2023-05-10T14:40:38;2.72;;;1.80;;
27618;SDS011;15039;50.830;4.730;2023-05-10T14:43:04;3.25;;;1.85;;
27618;SDS011;15039;50.830;4.730;2023-05-10T14:45:30;2.60;;;1.90;;
27618;SDS011;15039;50.830;4.730;2023-05-10T14:47:56;2.75;;;2.20;;
27618;SDS011;15039;50.830;4.730;2023-05-10T14:50:22;2.40;;;2.20;;
27618;SDS011;15039;50.830;4.730;2023-05-10T14:52:48;4.68;;;2.28;;
27618;SDS011;15039;50.830;4.730;2023-05-10T14:55:14;2.42;;;1.98;;
27618;SDS011;15039;50.830;4.730;2023-05-10T14:57:40;4.05;;;2.25;;
27618;SDS011;15039;50.830;4.730;2023-05-10T15:00:06;3.28;;;2.30;;
27618;SDS011;15039;50.830;4.730;2023-05-10T15:02:32;4.03;;;2.35;;
27618;SDS011;15039;50.830;4.730;2023-05-10T15:04:58;3.17;;;2.60;;
27618;SDS011;15039;50.830;4.730;2023-05-10T15:07:24;3.50;;;2.70;;
27618;SDS011;15039;50.830;4.730;2023-05-10T15:09:50;3.65;;;2.75;;
27618;SDS011;15039;50.830;4.730;2023-05-10T15:12:16;3.75;;;3.00;;
27618;SDS011;15039;50.830;4.730;2023-05-10T15:14:43;4.38;;;3.45;;
27618;SDS011;15039;50.830;4.730;2023-05-10T15:17:09;6.97;;;3.15;;
27618;SDS011;15039;50.830;4.730;2023-05-10T15:19:36;3.38;;;2.78;;
27618;SDS011;15039;50.830;4.730;2023-05-10T15:22:02;5.50;;;3.20;;
27618;SDS011;15039;50.830;4.730;2023-05-10T15:24:29;5.20;;;3.22;;
27618;SDS011;15039;50.830;4.730;2023-05-10T15:26:55;4.80;;;3.95;;
27618;SDS011;15039;50.830;4.730;2023-05-10T15:29:20;5.47;;;3.67;;
27618;SDS011;15039;50.830;4.730;2023-05-10T15:31:46;4.03;;;3.47;;
27618;SDS011;15039;50.830;4.730;2023-05-10T15:34:15;6.03;;;3.50;;
27618;SDS011;15039;50.830;4.730;2023-05-10T15:36:41;4.25;;;3.55;;
27618;SDS011;15039;50.830;4.730;2023-05-10T15:39:07;4.05;;;3.25;;
27618;SDS011;15039;50.830;4.730;2023-05-10T15:41:34;3.88;;;3.40;;
27618;SDS011;15039;50.830;4.730;2023-05-10T15:44:00;4.82;;;3.45;;
27618;SDS011;15039;50.830;4.730;2023-05-10T15:46:26;4.28;;;3.67;;
27618;SDS011;15039;50.830;4.730;2023-05-10T15:48:52;6.07;;;3.60;;
27618;SDS011;15039;50.830;4.730;2023-05-10T15:51:18;6.50;;;3.67;;